sensor_id;sensor_type;location;lat;lon;timestamp;noise_LAeq;noise_LA_min;noise_LA_max;noise_LA01;noise_LA95
73206;Laerm;61415;55.702;37.460;2023-02-15T00:00:14;62.43;56.45;70.19;;
73206;Laerm;61415;55.702;37.460;2023-02-15T00:00:45;62.23;55.19;69.91;;
73206;Laerm;61415;55.702;37.460;2023-02-15T00:01:16;61.26;57.06;64.95;;
73206;Laerm;61415;55.702;37.460;2023-02-15T00:01:47;57.42;53.08;63.45;;
73206;Laerm;61415;55.702;37.460;2023-02-15T00:02:18;55.49;52.45;59.17;;
73206;Laerm;61415;55.702;37.460;2023-02-15T00:02:50;59.00;52.89;65.03;;
73206;Laerm;61415;55.702;37.460;2023-02-15T00:03:21;60.85;55.63;70.38;;
73206;Laerm;61415;55.702;37.460;2023-02-15T00:03:52;62.52;58.40;67.18;;
73206;Laerm;61415;55.702;37.460;2023-02-15T00:04:24;62.62;58.99;67.86;;
73206;Laerm;61415;55.702;37.460;2023-02-15T00:04:54;62.30;57.34;69.09;;
73206;Laerm;61415;55.702;37.460;2023-02-15T00:05:26;59.43;56.15;62.46;;
73206;Laerm;61415;55.702;37.460;2023-02-15T00:05:57;61.71;57.45;65.91;;
73206;Laerm;61415;55.702;37.460;2023-02-15T00:06:28;72.30;55.84;90.39;;
73206;Laerm;61415;55.702;37.460;2023-02-15T00:06:59;62.25;56.54;72.37;;
73206;Laerm;61415;55.702;37.460;2023-02-15T00:07:29;61.14;55.75;67.47;;
73206;Laerm;61415;55.702;37.460;2023-02-15T00:08:00;61.91;56.13;66.54;;
73206;Laerm;61415;55.702;37.460;2023-02-15T00:08:31;61.92;55.45;66.79;;
73206;Laerm;61415;55.702;37.460;2023-02-15T00:09:02;67.50;59.33;79.19;;
73206;Laerm;61415;55.702;37.460;2023-02-15T00:09:33;61.38;53.51;69.57;;
73206;Laerm;61415;55.702;37.460;2023-02-15T00:10:04;55.46;51.43;60.14;;
73206;Laerm;61415;55.702;37.460;2023-02-15T00:10:35;58.32;53.59;63.06;;
73206;Laerm;61415;55.702;37.460;2023-02-15T00:11:06;57.24;52.88;61.90;;
73206;Laerm;61415;55.702;37.460;2023-02-15T00:11:38;59.05;54.88;64.85;;
73206;Laerm;61415;55.702;37.460;2023-02-15T00:12:14;58.64;54.16;64.61;;
73206;Laerm;61415;55.702;37.460;2023-02-15T00:12:45;64.46;56.29;72.21;;
73206;Laerm;61415;55.702;37.460;2023-02-15T00:13:16;62.75;56.72;68.68;;
73206;Laerm;61415;55.702;37.460;2023-02-15T00:13:47;64.30;53.24;69.03;;
73206;Laerm;61415;55.702;37.460;2023-02-15T00:14:21;61.45;54.71;67.35;;
73206;Laerm;61415;55.702;37.460;2023-02-15T00:14:52;60.56;52.92;67.58;;
73206;Laerm;61415;55.702;37.460;2023-02-15T00:15:23;61.42;57.31;67.58;;
73206;Laerm;61415;55.702;37.460;2023-02-15T00:15:54;61.18;57.59;65.84;;
73206;Laerm;61415;55.702;37.460;2023-02-15T00:16:24;62.09;54.32;71.07;;
73206;Laerm;61415;55.702;37.460;2023-02-15T00:16:55;60.92;54.17;65.68;;
73206;Laerm;61415;55.702;37.460;2023-02-15T00:17:30;63.09;53.56;73.42;;
73206;Laerm;61415;55.702;37.460;2023-02-15T00:18:00;57.37;53.37;60.67;;
73206;Laerm;61415;55.702;37.460;2023-02-15T00:18:31;62.57;54.52;67.68;;
73206;Laerm;61415;55.702;37.460;2023-02-15T00:19:02;74.72;56.98;84.97;;
73206;Laerm;61415;55.702;37.460;2023-02-15T00:19:33;61.70;53.83;73.94;;
73206;Laerm;61415;55.702;37.460;2023-02-15T00:20:04;72.67;56.92;85.52;;
73206;Laerm;61415;55.702;37.460;2023-02-15T00:20:35;61.12;56.45;67.39;;
73206;Laerm;61415;55.702;37.460;2023-02-15T00:21:07;60.51;54.65;66.91;;
73206;Laerm;61415;55.702;37.460;2023-02-15T00:21:38;60.65;56.89;65.34;;
73206;Laerm;61415;55.702;37.460;2023-02-15T00:22:09;60.24;55.15;66.73;;
73206;Laerm;61415;55.702;37.460;2023-02-15T00:22:40;60.13;54.89;65.30;;
73206;Laerm;61415;55.702;37.460;2023-02-15T00:23:11;63.13;58.64;68.91;;
73206;Laerm;61415;55.702;37.460;2023-02-15T00:23:42;60.41;54.96;65.59;;
73206;Laerm;61415;55.702;37.460;2023-02-15T00:24:13;71.47;58.68;81.15;;
73206;Laerm;61415;55.702;37.460;2023-02-15T00:24:44;71.41;62.02;81.14;;
73206;Laerm;61415;55.702;37.460;2023-02-15T00:25:15;60.38;55.50;64.89;;
73206;Laerm;61415;55.702;37.460;2023-02-15T00:25:46;61.42;55.19;65.12;;
73206;Laerm;61415;55.702;37.460;2023-02-15T00:26:17;62.07;55.90;66.37;;
73206;Laerm;61415;55.702;37.460;2023-02-15T00:26:47;62.97;56.51;67.42;;
73206;Laerm;61415;55.702;37.460;2023-02-15T00:27:19;60.49;55.61;66.00;;
73206;Laerm;61415;55.702;37.460;2023-02-15T00:27:50;57.45;54.08;68.18;;
73206;Laerm;61415;55.702;37.460;2023-02-15T00:28:21;60.17;54.41;66.47;;
73206;Laerm;61415;55.702;37.460;2023-02-15T00:28:52;63.37;57.27;67.47;;
73206;Laerm;61415;55.702;37.460;2023-02-15T00:29:23;68.70;56.27;79.46;;
73206;Laerm;61415;55.702;37.460;2023-02-15T00:29:54;59.55;52.90;72.70;;
73206;Laerm;61415;55.702;37.460;2023-02-15T00:30:25;56.87;52.25;60.18;;
73206;Laerm;61415;55.702;37.460;2023-02-15T00:31:01;54.94;50.83;59.96;;
73206;Laerm;61415;55.702;37.460;2023-02-15T00:31:32;62.65;55.15;68.88;;
73206;Laerm;61415;55.702;37.460;2023-02-15T00:32:03;59.51;54.86;66.64;;
73206;Laerm;61415;55.702;37.460;2023-02-15T00:32:34;60.58;56.27;63.91;;
73206;Laerm;61415;55.702;37.460;2023-02-15T00:33:05;60.44;54.48;66.95;;
73206;Laerm;61415;55.702;37.460;2023-02-15T00:33:36;60.58;54.87;65.19;;
73206;Laerm;61415;55.702;37.460;2023-02-15T00:34:09;59.01;54.30;64.38;;
73206;Laerm;61415;55.702;37.460;2023-02-15T00:34:41;58.25;53.34;62.87;;
73206;Laerm;61415;55.702;37.460;2023-02-15T00:35:12;59.70;53.82;65.14;;
73206;Laerm;61415;55.702;37.460;2023-02-15T00:35:42;57.88;53.04;63.98;;
73206;Laerm;61415;55.702;37.460;2023-02-15T00:36:13;61.24;55.14;66.18;;
73206;Laerm;61415;55.702;37.460;2023-02-15T00:36:44;59.42;53.93;64.30;;
73206;Laerm;61415;55.702;37.460;2023-02-15T00:37:15;61.56;55.80;66.63;;
73206;Laerm;61415;55.702;37.460;2023-02-15T00:37:46;62.59;57.69;65.81;;
73206;Laerm;61415;55.702;37.460;2023-02-15T00:38:17;62.52;58.11;66.82;;
73206;Laerm;61415;55.702;37.460;2023-02-15T00:38:48;56.95;53.12;61.99;;
73206;Laerm;61415;55.702;37.460;2023-02-15T00:39:19;57.08;53.27;62.85;;
73206;Laerm;61415;55.702;37.460;2023-02-15T00:39:49;62.32;56.75;66.90;;
73206;Laerm;61415;55.702;37.460;2023-02-15T00:40:20;59.51;53.66;65.14;;
73206;Laerm;61415;55.702;37.460;2023-02-15T00:40:52;56.54;52.18;63.03;;
73206;Laerm;61415;55.702;37.460;2023-02-15T00:41:23;57.29;52.13;63.43;;
73206;Laerm;61415;55.702;37.460;2023-02-15T00:41:53;56.75;50.91;61.85;;
73206;Laerm;61415;55.702;37.460;2023-02-15T00:42:24;57.23;51.03;65.28;;
73206;Laerm;61415;55.702;37.460;2023-02-15T00:42:55;59.28;55.08;64.60;;
73206;Laerm;61415;55.702;37.460;2023-02-15T00:43:26;62.79;57.62;69.32;;
73206;Laerm;61415;55.702;37.460;2023-02-15T00:43:57;58.57;52.09;63.29;;
73206;Laerm;61415;55.702;37.460;2023-02-15T00:44:28;63.14;54.12;68.70;;
73206;Laerm;61415;55.702;37.460;2023-02-15T00:44:59;59.21;54.02;63.99;;
73206;Laerm;61415;55.702;37.460;2023-02-15T00:45:30;60.94;57.18;64.13;;
73206;Laerm;61415;55.702;37.460;2023-02-15T00:46:01;62.92;55.88;68.84;;
73206;Laerm;61415;55.702;37.460;2023-02-15T00:46:31;61.32;54.97;68.61;;
73206;Laerm;61415;55.702;37.460;2023-02-15T00:47:02;59.84;56.52;65.71;;
73206;Laerm;61415;55.702;37.460;2023-02-15T00:47:33;62.55;58.52;65.80;;
73206;Laerm;61415;55.702;37.460;2023-02-15T00:48:04;65.94;57.92;72.15;;
73206;Laerm;61415;55.702;37.460;2023-02-15T00:48:34;60.34;54.67;69.17;;
73206;Laerm;61415;55.702;37.460;2023-02-15T00:49:05;61.65;56.62;66.94;;
73206;Laerm;61415;55.702;37.460;2023-02-15T00:49:36;62.75;56.92;68.53;;
73206;Laerm;61415;55.702;37.460;2023-02-15T00:50:07;62.75;57.29;67.27;;
73206;Laerm;61415;55.702;37.460;2023-02-15T00:50:38;62.41;57.39;66.80;;
73206;Laerm;61415;55.702;37.460;2023-02-15T00:51:08;64.92;59.92;69.08;;
73206;Laerm;61415;55.702;37.460;2023-02-15T00:51:39;60.71;57.34;64.34;;
73206;Laerm;61415;55.702;37.460;2023-02-15T00:52:10;62.90;55.26;72.54;;
73206;Laerm;61415;55.702;37.460;2023-02-15T00:52:41;62.39;56.02;70.57;;
73206;Laerm;61415;55.702;37.460;2023-02-15T00:53:12;63.04;57.60;67.05;;
73206;Laerm;61415;55.702;37.460;2023-02-15T00:53:43;69.21;59.22;80.58;;
73206;Laerm;61415;55.702;37.460;2023-02-15T00:54:14;66.20;58.17;72.19;;
73206;Laerm;61415;55.702;37.460;2023-02-15T00:54:45;60.58;54.23;68.66;;
73206;Laerm;61415;55.702;37.460;2023-02-15T00:55:16;61.05;55.96;66.69;;
73206;Laerm;61415;55.702;37.460;2023-02-15T00:55:47;59.88;53.16;64.39;;
73206;Laerm;61415;55.702;37.460;2023-02-15T00:56:17;55.39;50.69;60.44;;
73206;Laerm;61415;55.702;37.460;2023-02-15T00:56:48;58.85;52.75;64.21;;
73206;Laerm;61415;55.702;37.460;2023-02-15T00:57:19;66.57;58.67;73.95;;
73206;Laerm;61415;55.702;37.460;2023-02-15T00:57:50;57.54;53.09;68.60;;
73206;Laerm;61415;55.702;37.460;2023-02-15T00:58:20;65.69;58.18;73.68;;
73206;Laerm;61415;55.702;37.460;2023-02-15T00:58:51;56.52;51.10;65.16;;
73206;Laerm;61415;55.702;37.460;2023-02-15T00:59:22;54.85;51.78;58.98;;
73206;Laerm;61415;55.702;37.460;2023-02-15T00:59:53;58.77;52.01;63.52;;
73206;Laerm;61415;55.702;37.460;2023-02-15T01:00:24;64.60;55.48;73.54;;
73206;Laerm;61415;55.702;37.460;2023-02-15T01:00:54;57.24;52.51;61.54;;
73206;Laerm;61415;55.702;37.460;2023-02-15T01:01:25;60.98;54.77;65.35;;
73206;Laerm;61415;55.702;37.460;2023-02-15T01:01:56;69.22;55.77;80.83;;
73206;Laerm;61415;55.702;37.460;2023-02-15T01:02:27;62.95;57.41;66.97;;
73206;Laerm;61415;55.702;37.460;2023-02-15T01:02:58;61.35;54.35;66.87;;
73206;Laerm;61415;55.702;37.460;2023-02-15T01:03:29;59.10;51.89;65.14;;
73206;Laerm;61415;55.702;37.460;2023-02-15T01:04:00;59.59;53.25;63.70;;
73206;Laerm;61415;55.702;37.460;2023-02-15T01:04:31;58.86;54.19;63.84;;
73206;Laerm;61415;55.702;37.460;2023-02-15T01:05:02;58.28;53.61;63.42;;
73206;Laerm;61415;55.702;37.460;2023-02-15T01:05:33;59.20;53.12;65.49;;
73206;Laerm;61415;55.702;37.460;2023-02-15T01:06:04;59.88;54.73;64.84;;
73206;Laerm;61415;55.702;37.460;2023-02-15T01:06:35;57.67;53.50;67.16;;
73206;Laerm;61415;55.702;37.460;2023-02-15T01:07:06;58.40;53.43;64.89;;
73206;Laerm;61415;55.702;37.460;2023-02-15T01:07:37;67.07;57.80;72.46;;
73206;Laerm;61415;55.702;37.460;2023-02-15T01:08:08;65.93;58.47;71.51;;
73206;Laerm;61415;55.702;37.460;2023-02-15T01:08:39;61.71;56.18;66.52;;
73206;Laerm;61415;55.702;37.460;2023-02-15T01:09:09;64.16;59.59;69.30;;
73206;Laerm;61415;55.702;37.460;2023-02-15T01:09:40;61.88;58.60;65.58;;
73206;Laerm;61415;55.702;37.460;2023-02-15T01:10:11;61.76;58.47;64.68;;
73206;Laerm;61415;55.702;37.460;2023-02-15T01:10:42;63.54;58.66;68.37;;
73206;Laerm;61415;55.702;37.460;2023-02-15T01:11:18;62.55;56.69;67.51;;
73206;Laerm;61415;55.702;37.460;2023-02-15T01:11:52;64.08;57.85;68.93;;
73206;Laerm;61415;55.702;37.460;2023-02-15T01:12:23;64.04;54.90;69.89;;
73206;Laerm;61415;55.702;37.460;2023-02-15T01:12:54;59.86;54.23;64.22;;
73206;Laerm;61415;55.702;37.460;2023-02-15T01:13:25;65.05;57.01;69.90;;
73206;Laerm;61415;55.702;37.460;2023-02-15T01:13:57;62.20;57.38;70.53;;
73206;Laerm;61415;55.702;37.460;2023-02-15T01:14:28;58.61;53.36;63.11;;
73206;Laerm;61415;55.702;37.460;2023-02-15T01:14:59;64.05;59.13;68.47;;
73206;Laerm;61415;55.702;37.460;2023-02-15T01:15:29;60.71;54.91;66.16;;
73206;Laerm;61415;55.702;37.460;2023-02-15T01:16:00;60.51;56.77;69.50;;
73206;Laerm;61415;55.702;37.460;2023-02-15T01:16:31;66.03;55.98;71.44;;
73206;Laerm;61415;55.702;37.460;2023-02-15T01:17:02;61.26;56.33;67.12;;
73206;Laerm;61415;55.702;37.460;2023-02-15T01:17:33;60.19;54.90;64.94;;
73206;Laerm;61415;55.702;37.460;2023-02-15T01:18:03;61.47;55.74;65.31;;
73206;Laerm;61415;55.702;37.460;2023-02-15T01:18:34;62.11;57.34;67.16;;
73206;Laerm;61415;55.702;37.460;2023-02-15T01:19:05;61.24;55.41;66.30;;
73206;Laerm;61415;55.702;37.460;2023-02-15T01:19:36;59.32;54.77;63.83;;
73206;Laerm;61415;55.702;37.460;2023-02-15T01:20:07;60.87;56.71;64.38;;
73206;Laerm;61415;55.702;37.460;2023-02-15T01:20:38;61.41;56.87;65.42;;
73206;Laerm;61415;55.702;37.460;2023-02-15T01:21:12;61.13;55.41;67.96;;
73206;Laerm;61415;55.702;37.460;2023-02-15T01:21:44;62.14;55.70;69.06;;
73206;Laerm;61415;55.702;37.460;2023-02-15T01:22:14;59.28;54.55;64.52;;
73206;Laerm;61415;55.702;37.460;2023-02-15T01:22:45;58.59;53.48;69.73;;
73206;Laerm;61415;55.702;37.460;2023-02-15T01:23:16;62.07;56.07;66.61;;
73206;Laerm;61415;55.702;37.460;2023-02-15T01:23:47;60.75;55.46;67.05;;
73206;Laerm;61415;55.702;37.460;2023-02-15T01:24:18;60.51;54.75;64.88;;
73206;Laerm;61415;55.702;37.460;2023-02-15T01:24:48;60.09;56.67;64.24;;
73206;Laerm;61415;55.702;37.460;2023-02-15T01:25:20;60.67;55.76;66.73;;
73206;Laerm;61415;55.702;37.460;2023-02-15T01:25:51;61.82;55.93;67.78;;
73206;Laerm;61415;55.702;37.460;2023-02-15T01:26:22;60.03;55.63;65.04;;
73206;Laerm;61415;55.702;37.460;2023-02-15T01:26:53;62.21;57.53;67.22;;
73206;Laerm;61415;55.702;37.460;2023-02-15T01:27:24;61.46;53.54;65.85;;
73206;Laerm;61415;55.702;37.460;2023-02-15T01:27:54;55.03;51.54;59.02;;
73206;Laerm;61415;55.702;37.460;2023-02-15T01:28:25;64.75;52.05;73.38;;
73206;Laerm;61415;55.702;37.460;2023-02-15T01:28:56;64.81;59.32;71.89;;
73206;Laerm;61415;55.702;37.460;2023-02-15T01:29:27;62.11;54.64;67.10;;
73206;Laerm;61415;55.702;37.460;2023-02-15T01:29:57;64.59;60.17;69.31;;
73206;Laerm;61415;55.702;37.460;2023-02-15T01:30:28;72.72;59.92;85.23;;
73206;Laerm;61415;55.702;37.460;2023-02-15T01:30:59;66.56;62.43;73.39;;
73206;Laerm;61415;55.702;37.460;2023-02-15T01:31:34;65.31;61.30;69.60;;
73206;Laerm;61415;55.702;37.460;2023-02-15T01:32:05;65.03;58.03;71.35;;
73206;Laerm;61415;55.702;37.460;2023-02-15T01:32:35;61.40;55.42;66.50;;
73206;Laerm;61415;55.702;37.460;2023-02-15T01:33:06;60.47;56.22;64.46;;
73206;Laerm;61415;55.702;37.460;2023-02-15T01:33:37;63.20;57.89;68.95;;
73206;Laerm;61415;55.702;37.460;2023-02-15T01:34:08;59.03;52.07;64.08;;
73206;Laerm;61415;55.702;37.460;2023-02-15T01:34:39;55.03;52.22;57.96;;
73206;Laerm;61415;55.702;37.460;2023-02-15T01:35:10;62.29;56.12;67.34;;
73206;Laerm;61415;55.702;37.460;2023-02-15T01:35:41;63.06;56.80;67.40;;
73206;Laerm;61415;55.702;37.460;2023-02-15T01:36:12;65.55;57.71;70.53;;
73206;Laerm;61415;55.702;37.460;2023-02-15T01:36:43;63.68;55.77;71.13;;
73206;Laerm;61415;55.702;37.460;2023-02-15T01:37:14;67.39;58.15;73.15;;
73206;Laerm;61415;55.702;37.460;2023-02-15T01:37:44;64.07;59.08;67.86;;
73206;Laerm;61415;55.702;37.460;2023-02-15T01:38:15;59.68;51.63;65.97;;
73206;Laerm;61415;55.702;37.460;2023-02-15T01:38:46;56.50;50.99;62.48;;
73206;Laerm;61415;55.702;37.460;2023-02-15T01:39:17;58.62;52.50;64.22;;
73206;Laerm;61415;55.702;37.460;2023-02-15T01:39:48;59.72;54.14;63.41;;
73206;Laerm;61415;55.702;37.460;2023-02-15T01:40:19;59.22;55.13;64.19;;
73206;Laerm;61415;55.702;37.460;2023-02-15T01:40:50;61.51;56.62;65.21;;
73206;Laerm;61415;55.702;37.460;2023-02-15T01:41:21;58.27;53.10;63.28;;
73206;Laerm;61415;55.702;37.460;2023-02-15T01:41:56;57.63;52.27;61.92;;
73206;Laerm;61415;55.702;37.460;2023-02-15T01:42:27;61.79;52.78;68.75;;
73206;Laerm;61415;55.702;37.460;2023-02-15T01:42:58;65.32;59.32;72.25;;
73206;Laerm;61415;55.702;37.460;2023-02-15T01:43:42;63.84;57.69;70.44;;
73206;Laerm;61415;55.702;37.460;2023-02-15T01:45:05;59.27;53.53;66.15;;
73206;Laerm;61415;55.702;37.460;2023-02-15T01:45:45;59.56;53.47;65.18;;
73206;Laerm;61415;55.702;37.460;2023-02-15T01:46:18;59.98;54.60;64.47;;
73206;Laerm;61415;55.702;37.460;2023-02-15T01:46:51;64.33;59.95;69.26;;
73206;Laerm;61415;55.702;37.460;2023-02-15T01:47:27;63.23;56.57;69.07;;
73206;Laerm;61415;55.702;37.460;2023-02-15T01:48:04;68.20;63.17;72.49;;
73206;Laerm;61415;55.702;37.460;2023-02-15T01:48:35;65.79;61.02;72.57;;
73206;Laerm;61415;55.702;37.460;2023-02-15T01:49:15;61.82;56.66;67.51;;
73206;Laerm;61415;55.702;37.460;2023-02-15T01:49:47;62.22;57.91;67.06;;
73206;Laerm;61415;55.702;37.460;2023-02-15T01:50:28;58.96;53.26;65.86;;
73206;Laerm;61415;55.702;37.460;2023-02-15T01:51:00;58.74;54.35;65.33;;
73206;Laerm;61415;55.702;37.460;2023-02-15T01:51:32;61.67;54.33;67.40;;
73206;Laerm;61415;55.702;37.460;2023-02-15T01:52:05;63.19;55.58;71.44;;
73206;Laerm;61415;55.702;37.460;2023-02-15T01:52:36;59.53;54.99;64.60;;
73206;Laerm;61415;55.702;37.460;2023-02-15T01:53:11;61.59;57.86;65.11;;
73206;Laerm;61415;55.702;37.460;2023-02-15T01:53:47;60.06;53.82;64.81;;
73206;Laerm;61415;55.702;37.460;2023-02-15T01:54:23;60.77;56.59;64.61;;
73206;Laerm;61415;55.702;37.460;2023-02-15T01:54:56;63.58;58.47;69.67;;
73206;Laerm;61415;55.702;37.460;2023-02-15T01:55:29;62.42;56.09;67.73;;
73206;Laerm;61415;55.702;37.460;2023-02-15T01:56:04;65.46;60.55;71.80;;
73206;Laerm;61415;55.702;37.460;2023-02-15T01:56:37;63.38;58.64;70.58;;
73206;Laerm;61415;55.702;37.460;2023-02-15T01:57:10;61.69;56.81;65.63;;
73206;Laerm;61415;55.702;37.460;2023-02-15T01:57:43;62.09;57.10;65.22;;
73206;Laerm;61415;55.702;37.460;2023-02-15T01:58:16;60.65;55.66;64.95;;
73206;Laerm;61415;55.702;37.460;2023-02-15T01:58:47;71.30;56.16;84.52;;
73206;Laerm;61415;55.702;37.460;2023-02-15T01:59:19;62.89;58.55;68.72;;
73206;Laerm;61415;55.702;37.460;2023-02-15T01:59:51;62.92;57.26;68.19;;
73206;Laerm;61415;55.702;37.460;2023-02-15T02:00:24;63.95;59.77;66.82;;
73206;Laerm;61415;55.702;37.460;2023-02-15T02:00:55;62.81;59.02;66.88;;
73206;Laerm;61415;55.702;37.460;2023-02-15T02:01:27;58.67;55.25;63.48;;
73206;Laerm;61415;55.702;37.460;2023-02-15T02:01:58;62.91;58.96;67.71;;
73206;Laerm;61415;55.702;37.460;2023-02-15T02:02:30;60.92;56.09;64.89;;
73206;Laerm;61415;55.702;37.460;2023-02-15T02:03:00;63.72;58.56;69.19;;
73206;Laerm;61415;55.702;37.460;2023-02-15T02:04:16;59.56;55.07;64.08;;
73206;Laerm;61415;55.702;37.460;2023-02-15T02:04:49;61.91;57.66;68.39;;
73206;Laerm;61415;55.702;37.460;2023-02-15T02:05:20;61.94;55.34;68.41;;
73206;Laerm;61415;55.702;37.460;2023-02-15T02:05:51;60.72;54.99;65.53;;
73206;Laerm;61415;55.702;37.460;2023-02-15T02:06:22;57.32;53.29;63.31;;
73206;Laerm;61415;55.702;37.460;2023-02-15T02:06:54;64.97;53.92;71.62;;
73206;Laerm;61415;55.702;37.460;2023-02-15T02:07:28;62.69;55.75;68.60;;
73206;Laerm;61415;55.702;37.460;2023-02-15T02:08:02;63.14;57.51;70.32;;
73206;Laerm;61415;55.702;37.460;2023-02-15T02:08:33;62.60;54.78;69.81;;
73206;Laerm;61415;55.702;37.460;2023-02-15T02:09:04;65.65;55.58;69.84;;
73206;Laerm;61415;55.702;37.460;2023-02-15T02:09:35;66.85;62.81;72.23;;
73206;Laerm;61415;55.702;37.460;2023-02-15T02:10:07;64.57;58.22;68.58;;
73206;Laerm;61415;55.702;37.460;2023-02-15T02:10:40;61.23;56.85;66.48;;
73206;Laerm;61415;55.702;37.460;2023-02-15T02:11:11;61.48;54.43;67.96;;
73206;Laerm;61415;55.702;37.460;2023-02-15T02:11:42;67.19;58.89;72.77;;
73206;Laerm;61415;55.702;37.460;2023-02-15T02:12:16;61.91;58.24;69.38;;
73206;Laerm;61415;55.702;37.460;2023-02-15T02:12:48;61.93;57.35;66.10;;
73206;Laerm;61415;55.702;37.460;2023-02-15T02:13:20;61.32;55.45;68.37;;
73206;Laerm;61415;55.702;37.460;2023-02-15T02:13:51;61.82;57.85;64.74;;
73206;Laerm;61415;55.702;37.460;2023-02-15T02:14:24;61.45;56.10;66.25;;
73206;Laerm;61415;55.702;37.460;2023-02-15T02:14:55;62.79;58.78;66.46;;
73206;Laerm;61415;55.702;37.460;2023-02-15T02:15:49;60.76;56.98;65.75;;
73206;Laerm;61415;55.702;37.460;2023-02-15T02:17:22;62.46;57.65;66.14;;
73206;Laerm;61415;55.702;37.460;2023-02-15T02:18:59;64.82;59.75;71.33;;
73206;Laerm;61415;55.702;37.460;2023-02-15T02:22:14;63.10;56.69;70.09;;
73206;Laerm;61415;55.702;37.460;2023-02-15T02:26:56;67.66;59.88;;;
73206;Laerm;61415;55.702;37.460;2023-02-15T02:27:43;68.52;61.05;75.45;;
73206;Laerm;61415;55.702;37.460;2023-02-15T02:32:03;61.24;55.77;65.89;;
73206;Laerm;61415;55.702;37.460;2023-02-15T02:34:15;59.88;55.00;64.19;;
73206;Laerm;61415;55.702;37.460;2023-02-15T02:35:38;63.93;60.03;67.98;;
73206;Laerm;61415;55.702;37.460;2023-02-15T02:36:54;62.48;58.15;66.68;;
73206;Laerm;61415;55.702;37.460;2023-02-15T02:38:48;65.87;59.69;71.16;;
73206;Laerm;61415;55.702;37.460;2023-02-15T02:41:26;64.15;59.21;71.39;;
73206;Laerm;61415;55.702;37.460;2023-02-15T02:42:40;64.44;58.97;67.88;;
73206;Laerm;61415;55.702;37.460;2023-02-15T02:43:15;64.53;59.63;68.15;;
73206;Laerm;61415;55.702;37.460;2023-02-15T02:44:48;62.41;56.62;67.74;;
73206;Laerm;61415;55.702;37.460;2023-02-15T02:45:24;67.15;57.48;72.54;;
73206;Laerm;61415;55.702;37.460;2023-02-15T02:46:00;64.07;60.14;67.35;;
73206;Laerm;61415;55.702;37.460;2023-02-15T02:46:35;63.56;58.94;67.86;;
73206;Laerm;61415;55.702;37.460;2023-02-15T02:47:40;61.89;58.01;66.64;;
73206;Laerm;61415;55.702;37.460;2023-02-15T02:48:15;63.36;58.79;67.86;;
73206;Laerm;61415;55.702;37.460;2023-02-15T02:48:48;61.73;57.69;65.23;;
73206;Laerm;61415;55.702;37.460;2023-02-15T02:49:33;65.21;61.01;68.96;;
73206;Laerm;61415;55.702;37.460;2023-02-15T02:50:07;63.71;58.46;69.92;;
73206;Laerm;61415;55.702;37.460;2023-02-15T02:50:39;65.05;58.62;74.41;;
73206;Laerm;61415;55.702;37.460;2023-02-15T02:51:10;62.30;59.03;65.73;;
73206;Laerm;61415;55.702;37.460;2023-02-15T02:51:41;65.86;61.81;70.58;;
73206;Laerm;61415;55.702;37.460;2023-02-15T02:53:01;63.50;57.89;69.26;;
73206;Laerm;61415;55.702;37.460;2023-02-15T02:53:31;63.95;60.76;67.29;;
73206;Laerm;61415;55.702;37.460;2023-02-15T02:54:04;66.48;62.04;71.10;;
73206;Laerm;61415;55.702;37.460;2023-02-15T02:54:36;64.64;60.96;69.27;;
73206;Laerm;61415;55.702;37.460;2023-02-15T02:55:11;67.45;59.84;76.15;;
73206;Laerm;61415;55.702;37.460;2023-02-15T02:55:44;63.38;59.27;67.21;;
73206;Laerm;61415;55.702;37.460;2023-02-15T02:56:53;66.74;61.41;70.39;;
73206;Laerm;61415;55.702;37.460;2023-02-15T02:57:25;62.00;57.56;67.28;;
73206;Laerm;61415;55.702;37.460;2023-02-15T02:58:00;65.25;60.33;69.06;;
73206;Laerm;61415;55.702;37.460;2023-02-15T02:58:39;63.96;60.15;68.28;;
73206;Laerm;61415;55.702;37.460;2023-02-15T02:59:31;64.94;60.47;68.95;;
73206;Laerm;61415;55.702;37.460;2023-02-15T03:00:04;64.42;58.74;70.09;;
73206;Laerm;61415;55.702;37.460;2023-02-15T03:00:36;61.23;56.49;67.86;;
73206;Laerm;61415;55.702;37.460;2023-02-15T03:02:32;62.80;57.95;66.98;;
73206;Laerm;61415;55.702;37.460;2023-02-15T03:03:06;63.08;57.77;66.25;;
73206;Laerm;61415;55.702;37.460;2023-02-15T03:03:41;65.82;58.91;70.18;;
73206;Laerm;61415;55.702;37.460;2023-02-15T03:04:15;66.69;62.59;77.87;;
73206;Laerm;61415;55.702;37.460;2023-02-15T03:04:51;66.44;61.12;73.61;;
73206;Laerm;61415;55.702;37.460;2023-02-15T03:05:29;63.17;57.32;68.82;;
73206;Laerm;61415;55.702;37.460;2023-02-15T03:06:01;65.18;60.48;69.47;;
73206;Laerm;61415;55.702;37.460;2023-02-15T03:06:40;65.20;61.72;68.30;;
73206;Laerm;61415;55.702;37.460;2023-02-15T03:07:14;64.73;60.87;68.91;;
73206;Laerm;61415;55.702;37.460;2023-02-15T03:07:52;64.76;59.89;68.48;;
73206;Laerm;61415;55.702;37.460;2023-02-15T03:08:24;64.18;59.32;68.45;;
73206;Laerm;61415;55.702;37.460;2023-02-15T03:09:01;64.07;59.30;67.93;;
73206;Laerm;61415;55.702;37.460;2023-02-15T03:09:36;64.17;59.92;68.22;;
73206;Laerm;61415;55.702;37.460;2023-02-15T03:10:13;63.81;60.12;67.72;;
73206;Laerm;61415;55.702;37.460;2023-02-15T03:10:44;66.30;63.58;68.86;;
73206;Laerm;61415;55.702;37.460;2023-02-15T03:11:15;63.44;59.32;68.10;;
73206;Laerm;61415;55.702;37.460;2023-02-15T03:11:46;63.00;59.11;66.28;;
73206;Laerm;61415;55.702;37.460;2023-02-15T03:12:49;65.10;61.73;68.39;;
73206;Laerm;61415;55.702;37.460;2023-02-15T03:13:20;66.76;61.63;69.31;;
73206;Laerm;61415;55.702;37.460;2023-02-15T03:13:52;65.99;60.91;70.84;;
73206;Laerm;61415;55.702;37.460;2023-02-15T03:14:23;63.62;58.02;67.97;;
73206;Laerm;61415;55.702;37.460;2023-02-15T03:15:00;66.40;63.35;69.31;;
73206;Laerm;61415;55.702;37.460;2023-02-15T03:15:36;66.94;63.52;69.93;;
73206;Laerm;61415;55.702;37.460;2023-02-15T03:16:26;65.39;59.76;70.29;;
73206;Laerm;61415;55.702;37.460;2023-02-15T03:16:58;65.13;61.21;68.58;;
73206;Laerm;61415;55.702;37.460;2023-02-15T03:17:30;64.25;59.11;67.83;;
73206;Laerm;61415;55.702;37.460;2023-02-15T03:18:01;66.98;64.19;70.79;;
73206;Laerm;61415;55.702;37.460;2023-02-15T03:18:35;65.63;60.09;69.88;;
73206;Laerm;61415;55.702;37.460;2023-02-15T03:19:09;65.62;60.38;69.85;;
73206;Laerm;61415;55.702;37.460;2023-02-15T03:19:43;66.29;62.29;69.27;;
73206;Laerm;61415;55.702;37.460;2023-02-15T03:20:29;67.31;61.12;73.68;;
73206;Laerm;61415;55.702;37.460;2023-02-15T03:21:01;65.64;62.00;69.97;;
73206;Laerm;61415;55.702;37.460;2023-02-15T03:22:05;68.23;62.32;72.21;;
73206;Laerm;61415;55.702;37.460;2023-02-15T03:22:42;65.30;60.89;69.27;;
73206;Laerm;61415;55.702;37.460;2023-02-15T03:23:19;65.67;61.88;69.89;;
73206;Laerm;61415;55.702;37.460;2023-02-15T03:23:52;68.60;62.50;74.21;;
73206;Laerm;61415;55.702;37.460;2023-02-15T03:24:26;65.99;60.92;70.15;;
73206;Laerm;61415;55.702;37.460;2023-02-15T03:25:02;64.04;60.40;68.20;;